Time;durP1;ratioP1;P1;durP2;ratioP2;P2;SDS_P1;SDS_P2;PMS_P1;PMS_P2;Temp;Humidity;BMP_temperature;BMP_pressure;BME280_temperature;BME280_humidity;BME280_pressure;Samples;Min_cycle;Max_cycle;Signal;HPM_P1;HPM_P2
2023/04/04 00:02:07;;;;;;;5.22;1.42;;;;;;;0.16;89.75;102507.78;6075122;28;20094;-69
2023/04/04 00:05:04;;;;;;;3.30;1.50;;;;;;;0.11;89.81;102494.00;6074022;28;20090;-69
2023/04/04 00:07:59;;;;;;;5.15;1.00;;;;;;;-0.08;89.23;102506.56;6075581;28;20033;-69
2023/04/04 00:10:58;;;;;;;4.53;1.20;;;;;;;-0.29;89.26;102494.03;6075586;28;20038;-69
2023/04/04 00:13:54;;;;;;;2.58;1.20;;;;;;;-0.39;89.66;102490.78;6074398;28;20040;-69
2023/04/04 00:16:49;;;;;;;4.13;1.30;;;;;;;-0.61;88.65;102494.72;6074319;28;20033;-69
2023/04/04 00:19:45;;;;;;;3.57;1.80;;;;;;;-0.50;89.83;102484.94;6075365;28;20390;-70
2023/04/04 00:22:41;;;;;;;2.53;1.13;;;;;;;-0.32;89.98;102487.13;6074407;28;20022;-70
2023/04/04 00:25:36;;;;;;;6.78;1.63;;;;;;;-0.27;90.62;102503.53;6073395;28;20037;-69
2023/04/04 00:28:32;;;;;;;5.00;1.80;;;;;;;-0.68;88.94;102482.72;6075128;28;20045;-69
2023/04/04 00:31:27;;;;;;;2.97;1.60;;;;;;;-0.77;88.12;102490.69;6075078;28;20397;-70
2023/04/04 00:34:22;;;;;;;5.43;1.30;;;;;;;-0.76;89.34;102492.44;6074602;28;20599;-70
2023/04/04 00:37:17;;;;;;;4.93;1.20;;;;;;;-0.67;89.99;102497.44;6074807;28;20052;-70
2023/04/04 00:40:13;;;;;;;6.33;1.50;;;;;;;-0.78;89.22;102508.06;6075062;28;20068;-70
2023/04/04 00:43:08;;;;;;;4.80;1.48;;;;;;;-0.95;88.02;102499.72;6073630;28;20514;-69
2023/04/04 00:46:04;;;;;;;3.67;1.03;;;;;;;-0.95;88.18;102504.91;6074357;28;20025;-70
2023/04/04 00:48:59;;;;;;;4.67;1.50;;;;;;;-0.75;89.64;102488.91;6056131;28;20105;-69
2023/04/04 00:51:55;;;;;;;3.15;1.40;;;;;;;-0.97;88.97;102495.44;6071314;28;20103;-70
2023/04/04 00:54:50;;;;;;;4.30;0.93;;;;;;;-0.71;89.64;102496.63;6073510;28;20037;-70
2023/04/04 00:57:46;;;;;;;5.00;0.93;;;;;;;-0.76;89.65;102502.84;6072815;28;20381;-70
2023/04/04 01:00:42;;;;;;;4.33;1.30;;;;;;;-0.58;91.02;102491.19;6074269;28;20021;-69
2023/04/04 01:03:38;;;;;;;4.90;1.20;;;;;;;-0.74;90.25;102488.91;6073848;28;20171;-70
2023/04/04 01:06:33;;;;;;;4.65;1.50;;;;;;;-0.80;89.78;102489.03;6056617;28;20065;-69
2023/04/04 01:09:29;;;;;;;6.03;1.40;;;;;;;-1.01;88.78;102484.25;6073832;28;20505;-69
2023/04/04 01:12:24;;;;;;;6.30;1.40;;;;;;;-1.11;88.60;102493.06;6074799;28;20063;-69
2023/04/04 01:15:19;;;;;;;5.47;1.47;;;;;;;-1.16;89.31;102478.44;6073936;28;20064;-69
2023/04/04 01:18:18;;;;;;;4.80;1.30;;;;;;;-0.82;90.76;102483.00;6073956;28;20108;-70
2023/04/04 01:21:15;;;;;;;6.25;1.65;;;;;;;-1.24;89.46;102476.84;6056541;28;20389;-70
2023/04/04 01:24:12;;;;;;;2.80;1.50;;;;;;;-1.23;88.71;102495.94;6056509;28;20026;-69
2023/04/04 01:27:07;;;;;;;3.17;1.02;;;;;;;-1.01;90.60;102484.25;6104948;28;20120;-69
2023/04/04 01:30:04;;;;;;;4.70;1.63;;;;;;;-1.14;90.83;102471.47;6081401;28;20034;-69
2023/04/04 01:33:15;;;;;;;3.40;1.40;;;;;;;-1.06;91.18;102485.22;6055030;28;20033;-69
2023/04/04 01:36:27;;;;;;;8.32;1.33;;;;;;;-0.95;92.59;102473.69;6063569;28;20422;-69
2023/04/04 01:39:39;;;;;;;2.13;0.93;;;;;;;-1.00;91.86;102480.72;6055840;28;20064;-69
2023/04/04 01:42:35;;;;;;;3.53;1.27;;;;;;;-1.22;91.14;102469.00;6080808;28;20037;-70
2023/04/04 01:45:31;;;;;;;2.13;1.17;;;;;;;-1.05;91.72;102466.09;6087047;28;20536;-69
2023/04/04 01:48:27;;;;;;;4.43;1.13;;;;;;;-1.58;90.42;102444.53;6075464;28;20025;-70
2023/04/04 01:51:22;;;;;;;1.90;1.00;;;;;;;-1.09;91.30;102480.91;6076610;28;20035;-70
2023/04/04 01:54:18;;;;;;;3.45;1.30;;;;;;;-1.23;91.10;102475.97;6072974;28;20799;-70
2023/04/04 01:57:14;;;;;;;4.90;1.52;;;;;;;-1.42;89.59;102465.91;6073059;28;20397;-70
2023/04/04 02:00:09;;;;;;;7.03;1.20;;;;;;;-1.43;90.05;102458.97;6072937;28;20033;-70
2023/04/04 02:03:05;;;;;;;3.00;1.00;;;;;;;-1.24;90.87;102458.63;6072325;28;20099;-70
2023/04/04 02:06:00;;;;;;;3.10;1.10;;;;;;;-0.95;91.55;102465.03;6071940;28;20033;-70
2023/04/04 02:08:56;;;;;;;3.27;1.10;;;;;;;-0.92;92.14;102477.97;6072548;28;20046;-70
2023/04/04 02:11:51;;;;;;;4.43;1.23;;;;;;;-0.83;92.96;102456.97;6072526;28;20888;-70
2023/04/04 02:14:46;;;;;;;2.63;1.00;;;;;;;-0.66;94.32;102457.50;6071489;28;20037;-70
2023/04/04 02:17:47;;;;;;;2.17;1.13;;;;;;;-0.93;93.78;102445.03;6072928;28;20029;-70
2023/04/04 02:20:42;;;;;;;2.92;1.08;;;;;;;-1.49;92.09;102446.09;6071946;28;20053;-70
2023/04/04 02:23:38;;;;;;;3.07;1.17;;;;;;;-1.45;91.36;102456.44;6072110;28;20095;-70
2023/04/04 02:26:33;;;;;;;2.80;1.23;;;;;;;-1.74;91.17;102447.41;6072794;28;20033;-70
2023/04/04 02:29:28;;;;;;;2.40;1.00;;;;;;;-1.60;91.81;102433.28;6072077;28;20026;-70
2023/04/04 02:32:24;;;;;;;2.70;0.98;;;;;;;-1.88;91.21;102425.09;6072030;28;20060;-70
2023/04/04 02:35:19;;;;;;;3.08;1.10;;;;;;;-1.68;90.88;102445.53;6071548;28;20042;-70
2023/04/04 02:38:14;;;;;;;1.57;0.60;;;;;;;-1.69;91.15;102450.78;6071982;28;20037;-70
2023/04/04 02:41:10;;;;;;;1.98;1.23;;;;;;;-1.62;91.39;102441.97;6071830;28;20478;-71
2023/04/04 02:44:07;;;;;;;2.65;1.05;;;;;;;-1.56;91.94;102424.53;6071121;28;20029;-70
2023/04/04 02:47:02;;;;;;;4.00;1.13;;;;;;;-1.63;91.75;102430.72;6072065;28;20088;-70
2023/04/04 02:49:58;;;;;;;5.37;1.13;;;;;;;-1.79;91.41;102444.03;6076113;28;20462;-70
2023/04/04 02:53:01;;;;;;;2.53;0.90;;;;;;;-1.90;91.70;102416.44;6076512;28;20034;-70
2023/04/04 02:55:56;;;;;;;4.22;1.27;;;;;;;-2.18;91.05;102412.59;6076543;28;20037;-71
2023/04/04 02:58:51;;;;;;;4.33;1.30;;;;;;;-2.06;92.09;102409.78;6076813;28;20072;-70
2023/04/04 03:01:47;;;;;;;3.53;1.03;;;;;;;-1.87;92.49;102421.59;6077023;28;20030;-70
2023/04/04 03:04:42;;;;;;;2.23;0.90;;;;;;;-1.92;93.26;102422.56;6074917;28;20055;-70
2023/04/04 03:07:37;;;;;;;3.10;1.30;;;;;;;-1.96;92.74;102413.09;6076673;28;20033;-70
2023/04/04 03:10:33;;;;;;;3.93;1.07;;;;;;;-1.98;92.57;102401.84;6076887;28;20037;-71
2023/04/04 03:13:28;;;;;;;1.70;0.90;;;;;;;-1.92;93.18;102407.81;6075434;28;20437;-70
2023/04/04 03:16:24;;;;;;;6.30;1.23;;;;;;;-1.93;93.45;102397.47;6079699;28;20040;-69
2023/04/04 03:19:19;;;;;;;1.00;0.52;;;;;;;-1.84;92.75;102389.50;6094162;28;20041;-72
2023/04/04 03:22:15;;;;;;;3.30;0.97;;;;;;;-1.86;93.37;102391.28;6076613;28;20052;-69
2023/04/04 03:25:10;;;;;;;2.60;0.90;;;;;;;-1.65;93.77;102409.09;6074621;28;20504;-69
2023/04/04 03:28:09;;;;;;;2.10;0.90;;;;;;;-1.29;95.27;102400.63;6082212;28;20040;-69
2023/04/04 03:31:05;;;;;;;2.83;1.30;;;;;;;-1.11;95.91;102381.16;6075766;28;20103;-71
2023/04/04 03:34:03;;;;;;;4.43;1.40;;;;;;;-1.17;95.94;102401.28;6074595;28;20038;-70
2023/04/04 03:36:58;;;;;;;3.72;1.40;;;;;;;-1.38;95.49;102400.78;6076304;28;20659;-69
2023/04/04 03:39:53;;;;;;;2.55;1.00;;;;;;;-1.39;96.02;102388.69;6075671;28;20029;-70
2023/04/04 03:42:50;;;;;;;2.37;0.83;;;;;;;-1.30;96.35;102387.63;6076094;28;20394;-69
2023/04/04 03:45:47;;;;;;;4.88;1.35;;;;;;;-1.16;96.38;102371.75;6090756;28;20109;-69
2023/04/04 03:48:42;;;;;;;4.22;1.40;;;;;;;-0.98;96.50;102400.03;6075440;28;20435;-71
2023/04/04 03:51:37;;;;;;;1.70;0.90;;;;;;;-0.92;96.68;102381.66;6075519;28;20037;-68
2023/04/04 03:54:33;;;;;;;5.13;1.57;;;;;;;-1.17;95.69;102376.13;6074997;28;20090;-70
2023/04/04 03:57:28;;;;;;;6.00;1.23;;;;;;;-1.00;95.04;102379.22;6075906;28;20413;-68
2023/04/04 04:00:24;;;;;;;3.70;1.03;;;;;;;-1.12;94.61;102378.63;6066001;28;20024;-71
2023/04/04 04:03:20;;;;;;;0.95;0.60;;;;;;;-1.10;94.92;102389.84;6074780;28;20064;-70
2023/04/04 04:06:15;;;;;;;5.50;1.17;;;;;;;-1.18;96.43;102381.34;6075688;28;20510;-70
2023/04/04 04:09:11;;;;;;;2.72;1.10;;;;;;;-1.18;95.73;102391.75;6075667;28;20036;-71
2023/04/04 04:12:07;;;;;;;2.88;1.20;;;;;;;-1.56;92.82;102382.94;6074596;28;20041;-72
2023/04/04 04:15:02;;;;;;;3.38;1.20;;;;;;;-1.36;93.26;102387.78;6075042;28;20061;-69
2023/04/04 04:17:57;;;;;;;3.85;1.02;;;;;;;-1.54;92.42;102388.94;6075199;28;20022;-69
2023/04/04 04:20:58;;;;;;;4.10;0.90;;;;;;;-2.19;91.12;102379.69;6074732;28;20136;-70
2023/04/04 04:23:53;;;;;;;3.63;1.08;;;;;;;-2.05;92.93;102363.88;6074090;28;20029;-69
2023/04/04 04:26:48;;;;;;;2.03;0.77;;;;;;;-1.88;93.39;102386.13;6074341;28;20501;-69
2023/04/04 04:29:44;;;;;;;7.10;1.50;;;;;;;-1.59;94.54;102388.19;6075159;28;20029;-69
2023/04/04 04:32:39;;;;;;;6.20;1.17;;;;;;;-2.26;93.11;102390.22;6075103;28;20035;-69
2023/04/04 04:35:36;;;;;;;2.55;1.17;;;;;;;-2.56;93.41;102371.63;6079655;28;20300;-69
2023/04/04 04:38:32;;;;;;;3.35;1.13;;;;;;;-2.74;94.73;102376.19;6074799;28;20393;-70
2023/04/04 04:41:28;;;;;;;5.10;1.30;;;;;;;-2.52;96.06;102388.00;6081396;28;20072;-69
2023/04/04 04:44:23;;;;;;;3.38;1.25;;;;;;;-2.82;96.23;102371.09;6083033;28;20033;-69
2023/04/04 04:47:18;;;;;;;4.30;1.00;;;;;;;-2.31;97.36;102389.44;6074117;28;20056;-69
2023/04/04 04:50:15;;;;;;;3.70;1.20;;;;;;;-2.04;97.21;102376.81;6074768;28;20036;-69
2023/04/04 04:53:10;;;;;;;2.20;0.75;;;;;;;-1.82;96.67;102377.31;6074064;28;20087;-71
2023/04/04 04:56:06;;;;;;;2.90;1.10;;;;;;;-1.48;95.79;102390.59;6074461;28;20029;-69
2023/04/04 04:59:02;;;;;;;5.05;1.42;;;;;;;-1.31;95.22;102375.53;6074184;28;20060;-71
2023/04/04 05:01:57;;;;;;;5.55;1.60;;;;;;;-1.51;93.24;102399.31;6077350;28;20025;-70
2023/04/04 05:04:52;;;;;;;5.73;1.70;;;;;;;-1.75;93.03;102381.53;6073872;28;20036;-68
2023/04/04 05:07:47;;;;;;;5.60;1.37;;;;;;;-2.08;92.39;102405.50;6077042;28;20498;-69
2023/04/04 05:10:43;;;;;;;3.27;1.43;;;;;;;-1.58;95.14;102412.44;6073561;28;20033;-69
2023/04/04 05:13:39;;;;;;;3.30;1.57;;;;;;;-1.98;93.91;102396.66;6076898;28;20052;-69
2023/04/04 05:16:34;;;;;;;4.22;1.67;;;;;;;-1.78;94.33;102404.13;6074247;28;20021;-69
2023/04/04 05:19:30;;;;;;;7.75;1.73;;;;;;;-1.36;93.71;102393.81;6073973;28;20033;-68
2023/04/04 05:22:27;;;;;;;2.95;1.30;;;;;;;-1.20;92.44;102400.41;6072467;28;20413;-70
2023/04/04 05:25:22;;;;;;;4.03;1.55;;;;;;;-1.24;89.93;102409.19;6071788;28;20029;-69
2023/04/04 05:28:21;;;;;;;2.63;1.40;;;;;;;-1.79;89.64;102425.84;6073352;28;20068;-69
2023/04/04 05:31:17;;;;;;;2.78;1.40;;;;;;;-1.71;91.94;102410.97;6073004;28;20025;-70
2023/04/04 05:34:12;;;;;;;4.30;1.58;;;;;;;-2.12;92.74;102419.44;6071419;28;20475;-69
2023/04/04 05:37:08;;;;;;;5.80;1.70;;;;;;;-1.79;94.18;102425.84;6073056;28;20380;-69
2023/04/04 05:40:04;;;;;;;4.47;2.30;;;;;;;-0.79;95.69;102437.81;6073783;28;20025;-69
2023/04/04 05:43:03;;;;;;;8.05;3.03;;;;;;;-0.77;93.56;102425.59;6072067;28;20083;-69
2023/04/04 05:45:58;;;;;;;15.20;4.60;;;;;;;-0.93;91.60;102424.22;6071054;28;20506;-70
2023/04/04 05:48:53;;;;;;;11.97;4.50;;;;;;;-0.67;90.62;102422.78;6073224;28;20091;-69
2023/04/04 05:51:48;;;;;;;11.90;3.97;;;;;;;-0.28;90.95;102428.84;6072388;28;20041;-69
2023/04/04 05:54:44;;;;;;;8.80;2.97;;;;;;;-0.05;88.84;102423.94;6072295;28;20382;-69
2023/04/04 05:57:51;;;;;;;31.37;8.80;;;;;;;-0.26;86.90;102434.88;6072440;28;20030;-69
2023/04/04 06:00:49;;;;;;;26.40;9.20;;;;;;;-0.23;86.77;102424.38;6073541;28;20033;-70
2023/04/04 06:03:44;;;;;;;28.55;6.20;;;;;;;-0.09;84.87;102424.06;6088704;28;20033;-69
2023/04/04 06:06:39;;;;;;;12.07;4.03;;;;;;;0.05;83.46;102423.75;6075222;28;20107;-69
2023/04/04 06:09:35;;;;;;;5.78;2.30;;;;;;;-0.20;82.82;102420.84;6072609;28;20033;-68
2023/04/04 06:12:30;;;;;;;5.20;1.70;;;;;;;-0.01;83.45;102425.59;6076516;28;20037;-70
2023/04/04 06:15:25;;;;;;;5.83;1.80;;;;;;;-0.14;83.01;102431.16;6071163;28;20033;-69
2023/04/04 06:18:21;;;;;;;2.63;1.13;;;;;;;0.00;83.17;102424.69;6075400;28;20041;-69
2023/04/04 06:21:16;;;;;;;6.17;1.60;;;;;;;0.22;82.82;102426.78;6071831;28;20598;-70
2023/04/04 06:24:11;;;;;;;3.50;1.37;;;;;;;0.41;81.71;102428.88;6083248;28;20147;-71
2023/04/04 06:27:07;;;;;;;3.90;1.20;;;;;;;0.04;81.88;102424.63;6070590;28;20041;-68
2023/04/04 06:30:03;;;;;;;3.25;1.40;;;;;;;0.50;81.50;102419.97;6072290;28;20033;-68
2023/04/04 06:32:58;;;;;;;2.42;1.30;;;;;;;0.75;81.36;102428.00;6071893;28;20049;-69
2023/04/04 06:35:53;;;;;;;5.07;1.30;;;;;;;0.97;80.31;102437.81;6071386;28;20021;-69
2023/04/04 06:38:49;;;;;;;2.90;1.43;;;;;;;0.84;80.98;102435.59;6071096;28;20029;-68
2023/04/04 06:41:44;;;;;;;4.40;1.45;;;;;;;0.75;80.30;102443.66;6070952;28;20033;-69
2023/04/04 06:44:39;;;;;;;5.40;1.57;;;;;;;0.94;80.25;102434.44;6072906;28;20026;-69
2023/04/04 06:47:34;;;;;;;3.43;1.50;;;;;;;0.73;80.49;102438.50;6071644;28;20054;-72
2023/04/04 06:50:32;;;;;;;2.93;1.47;;;;;;;0.68;81.29;102434.28;6073348;28;20022;-70
2023/04/04 06:53:28;;;;;;;13.18;4.35;;;;;;;0.41;81.35;102428.00;6071033;28;20042;-70
2023/04/04 06:56:25;;;;;;;7.00;2.53;;;;;;;0.82;81.31;102426.91;6071699;28;20041;-70
2023/04/04 06:59:21;;;;;;;6.50;1.80;;;;;;;0.77;81.52;102442.72;6073275;28;20114;-70
2023/04/04 07:02:16;;;;;;;3.53;1.40;;;;;;;0.80;81.30;102431.34;6071835;28;20468;-68
2023/04/04 07:05:13;;;;;;;5.63;1.57;;;;;;;0.99;80.97;102443.84;6072353;28;20044;-69
2023/04/04 07:08:08;;;;;;;6.20;1.38;;;;;;;1.52;80.15;102444.06;6072444;28;20099;-69
2023/04/04 07:11:05;;;;;;;5.50;1.25;;;;;;;1.34;79.21;102449.81;6072327;28;20041;-68
2023/04/04 07:14:00;;;;;;;3.25;1.10;;;;;;;1.33;79.63;102429.84;6070843;28;20048;-68
2023/04/04 07:16:57;;;;;;;3.57;1.27;;;;;;;1.43;78.90;102439.09;6071731;28;20029;-68
2023/04/04 07:19:52;;;;;;;4.88;1.50;;;;;;;1.75;80.22;102449.44;6072359;28;20046;-71
2023/04/04 07:22:47;;;;;;;3.00;1.13;;;;;;;1.74;79.25;102445.09;6071846;28;20033;-69
2023/04/04 07:25:43;;;;;;;4.70;1.40;;;;;;;1.88;78.14;102431.59;6071239;28;20030;-69
2023/04/04 07:28:38;;;;;;;4.27;1.50;;;;;;;2.17;75.73;102435.03;6083408;28;20040;-72
2023/04/04 07:31:33;;;;;;;3.23;1.10;;;;;;;1.87;75.89;102433.38;6072172;28;20049;-72
2023/04/04 07:34:28;;;;;;;5.27;1.60;;;;;;;2.34;76.05;102442.28;6074423;28;20122;-70
2023/04/04 07:37:25;;;;;;;3.30;1.30;;;;;;;2.62;74.74;102448.31;6076864;28;20025;-70
2023/04/04 07:40:20;;;;;;;3.53;1.42;;;;;;;2.83;73.16;102446.69;6076613;28;20045;-70
2023/04/04 07:43:16;;;;;;;3.47;1.43;;;;;;;2.80;73.01;102437.19;6074830;28;20033;-70
2023/04/04 07:46:11;;;;;;;7.90;2.50;;;;;;;3.11;71.97;102431.72;6076378;28;20272;-69
2023/04/04 07:49:07;;;;;;;3.65;1.35;;;;;;;3.10;70.59;102427.38;6076582;28;20038;-68
2023/04/04 07:52:03;;;;;;;6.32;1.80;;;;;;;3.25;71.92;102428.56;6076583;28;20049;-69
2023/04/04 07:54:59;;;;;;;5.60;1.88;;;;;;;3.08;70.25;102420.47;6076647;28;20245;-68
2023/04/04 07:57:55;;;;;;;6.15;2.00;;;;;;;3.22;71.03;102436.56;6076358;28;20033;-68
2023/04/04 08:00:50;;;;;;;7.87;1.97;;;;;;;3.80;70.14;102435.19;6076131;28;20079;-69
2023/04/04 08:03:45;;;;;;;3.95;1.60;;;;;;;4.12;67.34;102427.75;6075142;28;20295;-68
2023/04/04 08:06:41;;;;;;;6.83;1.83;;;;;;;3.95;67.95;102427.56;6075719;28;20033;-68
2023/04/04 08:09:36;;;;;;;4.63;1.33;;;;;;;3.74;68.96;102432.81;6075975;28;20037;-68
2023/04/04 08:12:32;;;;;;;3.87;1.40;;;;;;;3.92;68.14;102421.56;6076075;28;20056;-68
2023/04/04 08:15:27;;;;;;;3.28;1.30;;;;;;;4.11;66.65;102419.91;6075197;28;20271;-69
2023/04/04 08:18:22;;;;;;;4.13;1.27;;;;;;;4.12;65.79;102424.25;6076360;28;20037;-69
2023/04/04 08:21:18;;;;;;;6.43;1.43;;;;;;;4.24;65.71;102423.72;6082579;28;20033;-68
2023/04/04 08:24:13;;;;;;;2.45;1.00;;;;;;;4.09;66.52;102424.38;6080464;28;20091;-68
2023/04/04 08:27:08;;;;;;;7.07;1.27;;;;;;;4.30;64.77;102438.38;6075780;28;20040;-68
2023/04/04 08:30:04;;;;;;;4.93;1.33;;;;;;;4.40;62.44;102429.22;6075527;28;20034;-68
2023/04/04 08:33:00;;;;;;;3.67;1.30;;;;;;;4.41;62.78;102431.78;6075596;28;20032;-68
2023/04/04 08:35:57;;;;;;;4.10;1.10;;;;;;;4.79;62.52;102427.50;6074888;28;20037;-68
2023/04/04 08:38:52;;;;;;;2.25;1.00;;;;;;;4.48;62.09;102420.09;6075519;28;20363;-68
2023/04/04 08:41:52;;;;;;;3.00;1.35;;;;;;;4.52;61.77;102419.03;6075300;28;20036;-69
2023/04/04 08:44:49;;;;;;;3.00;1.02;;;;;;;4.36;60.15;102414.50;6075414;28;20037;-69
2023/04/04 08:47:45;;;;;;;2.95;1.20;;;;;;;4.61;60.56;102400.25;6090493;28;20041;-68
2023/04/04 08:50:44;;;;;;;2.78;0.90;;;;;;;4.75;57.47;102413.66;6057331;28;20033;-69
2023/04/04 08:53:39;;;;;;;5.30;1.25;;;;;;;4.49;58.30;102382.41;6074408;28;20037;-69
2023/04/04 08:56:34;;;;;;;3.23;1.33;;;;;;;4.63;57.18;102401.03;6074863;28;20045;-68
2023/04/04 08:59:30;;;;;;;1.67;0.60;;;;;;;4.59;52.88;102396.81;6074625;28;20036;-68
2023/04/04 09:02:29;;;;;;;2.60;0.68;;;;;;;4.85;54.21;102407.97;6074709;28;20072;-69
2023/04/04 09:05:25;;;;;;;2.38;0.70;;;;;;;5.13;52.42;102404.06;6055797;28;20040;-69
2023/04/04 09:08:23;;;;;;;3.38;0.80;;;;;;;5.08;52.73;102398.13;6074707;28;20083;-71
2023/04/04 09:11:21;;;;;;;1.65;0.70;;;;;;;5.30;51.95;102392.75;6074564;28;20040;-68
2023/04/04 09:14:18;;;;;;;2.40;0.60;;;;;;;5.42;51.67;102389.56;6059728;28;20049;-69
2023/04/04 09:17:13;;;;;;;2.30;0.80;;;;;;;5.61;50.89;102384.28;6057235;28;20370;-69
2023/04/04 09:20:35;;;;;;;1.37;0.63;;;;;;;5.66;50.84;102400.69;6073727;28;20056;-70
2023/04/04 09:23:31;;;;;;;2.45;0.70;;;;;;;5.60;50.55;102387.84;6063646;28;20119;-68
2023/04/04 09:26:26;;;;;;;2.00;1.00;;;;;;;5.52;50.91;102398.72;6074633;28;20437;-69
2023/04/04 09:29:21;;;;;;;2.93;0.70;;;;;;;6.25;48.03;102384.66;6057023;28;20033;-69
2023/04/04 09:32:20;;;;;;;2.10;0.80;;;;;;;6.46;49.50;102378.28;6074284;28;20033;-69
2023/04/04 09:35:15;;;;;;;2.33;0.85;;;;;;;5.86;49.38;102404.13;6073773;28;20256;-69
2023/04/04 09:38:11;;;;;;;3.27;0.80;;;;;;;6.30;52.03;102387.91;6074186;28;20450;-70
2023/04/04 09:41:08;;;;;;;2.08;1.10;;;;;;;6.85;48.07;102383.28;6074388;28;20470;-69
2023/04/04 09:44:04;;;;;;;3.85;0.93;;;;;;;6.42;48.37;102387.28;6073580;28;20041;-68
2023/04/04 09:47:25;;;;;;;2.75;0.93;;;;;;;5.75;48.91;102398.50;6089267;28;20033;-69
2023/04/04 09:50:22;;;;;;;2.67;0.82;;;;;;;6.14;48.30;102386.97;6074113;28;20033;-69
2023/04/04 09:53:18;;;;;;;4.07;0.90;;;;;;;5.77;46.98;102394.00;6073334;28;20025;-69
2023/04/04 09:56:13;;;;;;;1.55;0.75;;;;;;;5.52;48.56;102398.72;6073773;28;20037;-69
2023/04/04 09:59:09;;;;;;;3.45;0.90;;;;;;;6.19;46.98;102385.81;6073801;28;20602;-69
2023/04/04 10:02:06;;;;;;;3.33;1.00;;;;;;;6.04;46.30;102391.81;6073925;28;20052;-69
2023/04/04 10:05:02;;;;;;;2.03;0.80;;;;;;;5.95;46.87;102384.41;6088477;28;20278;-70
2023/04/04 10:07:58;;;;;;;2.20;0.90;;;;;;;6.39;48.09;102390.06;6055546;28;20117;-69
2023/04/04 10:10:58;;;;;;;2.67;0.93;;;;;;;6.53;48.13;102393.69;6073388;28;20037;-69
2023/04/04 10:13:53;;;;;;;3.72;0.80;;;;;;;6.79;49.31;102402.06;6072185;28;20033;-70
2023/04/04 10:16:55;;;;;;;3.63;0.80;;;;;;;7.02;48.66;102401.66;6073489;28;20425;-69
2023/04/04 10:19:51;;;;;;;2.63;0.98;;;;;;;7.45;49.47;102402.84;6073164;28;20408;-69
2023/04/04 10:22:47;;;;;;;2.20;0.77;;;;;;;7.93;46.02;102394.81;6057873;28;20057;-69
2023/04/04 10:25:43;;;;;;;2.95;0.90;;;;;;;7.34;50.18;102389.41;6047983;28;20380;-69
2023/04/04 10:28:39;;;;;;;3.03;0.93;;;;;;;7.01;51.29;102389.44;6083502;28;20314;-68
2023/04/04 10:31:39;;;;;;;2.05;0.63;;;;;;;7.77;44.26;102384.25;6055855;28;20072;-70
2023/04/04 10:34:42;;;;;;;3.20;0.90;;;;;;;7.92;43.68;102393.13;6072577;28;20055;-69
2023/04/04 10:37:43;;;;;;;5.32;0.93;;;;;;;7.35;45.96;102386.66;6089541;28;20482;-69
2023/04/04 10:40:43;;;;;;;3.03;0.88;;;;;;;7.78;46.42;102385.13;6103592;28;20041;-69
2023/04/04 10:43:42;;;;;;;1.67;0.60;;;;;;;7.39;47.50;102379.44;6078565;28;20037;-68
2023/04/04 10:46:40;;;;;;;2.50;1.08;;;;;;;7.68;46.20;102371.59;6073074;28;20025;-69
2023/04/04 10:49:36;;;;;;;1.95;0.77;;;;;;;7.53;45.09;102375.09;6072951;28;20041;-68
2023/04/04 10:52:32;;;;;;;2.75;0.98;;;;;;;7.13;46.52;102355.34;6088481;28;20375;-70
2023/04/04 10:55:28;;;;;;;4.13;0.80;;;;;;;7.23;48.60;102365.41;6087391;28;20060;-69
2023/04/04 10:58:23;;;;;;;2.58;0.90;;;;;;;6.65;47.58;102350.06;6055588;28;20033;-70
2023/04/04 11:01:19;;;;;;;4.83;0.90;;;;;;;6.51;48.30;102349.91;6072935;28;20034;-69
2023/04/04 11:04:20;;;;;;;4.07;0.88;;;;;;;6.30;48.24;102354.53;6054457;28;20041;-70
2023/04/04 11:07:15;;;;;;;5.25;0.90;;;;;;;6.21;47.88;102343.59;6071984;28;20029;-69
2023/04/04 11:10:23;;;;;;;1.75;0.73;;;;;;;6.58;47.78;102335.47;6076175;28;20087;-68
2023/04/04 11:13:34;;;;;;;3.92;0.77;;;;;;;7.32;47.42;102326.16;6068993;28;20316;-68
2023/04/04 11:16:45;;;;;;;1.27;0.65;;;;;;;7.45;46.98;102321.03;6076924;28;20037;-70
2023/04/04 11:19:57;;;;;;;3.08;1.52;;;;;;;7.79;46.36;102304.97;6077228;28;20112;-69
2023/04/04 11:23:09;;;;;;;4.10;0.90;;;;;;;7.22;45.07;102326.75;6082766;28;20033;-69
2023/04/04 11:26:06;;;;;;;3.22;0.85;;;;;;;7.01;46.04;102328.78;6076325;28;20048;-69
2023/04/04 11:29:02;;;;;;;3.70;1.50;;;;;;;6.11;46.58;102313.38;6076760;28;20034;-71
2023/04/04 11:31:58;;;;;;;5.13;1.05;;;;;;;6.69;48.62;102322.59;6077081;28;20041;-70
2023/04/04 11:34:55;;;;;;;4.93;1.00;;;;;;;7.36;48.13;102311.00;6075956;28;20109;-71
2023/04/04 11:37:51;;;;;;;4.75;1.05;;;;;;;7.46;45.22;102315.66;6059229;28;20029;-70
2023/04/04 11:40:53;;;;;;;2.30;1.30;;;;;;;7.20;44.69;102296.00;6076748;28;20103;-70
2023/04/04 11:43:49;;;;;;;5.60;2.08;;;;;;;7.33;43.63;102306.75;6075844;28;20082;-70
2023/04/04 11:46:47;;;;;;;1.92;0.98;;;;;;;7.71;42.56;102294.00;6058974;28;20029;-70
2023/04/04 11:49:45;;;;;;;1.95;0.77;;;;;;;7.24;42.23;102295.84;6076447;28;20033;-71
2023/04/04 11:52:44;;;;;;;4.22;1.00;;;;;;;6.92;43.23;102301.13;6076599;28;20049;-69
2023/04/04 11:55:42;;;;;;;4.47;1.10;;;;;;;7.62;42.10;102294.53;6075692;28;20120;-71
2023/04/04 11:58:39;;;;;;;2.42;0.77;;;;;;;7.42;43.27;102282.47;6077068;28;20033;-72
2023/04/04 12:01:34;;;;;;;2.30;1.17;;;;;;;8.51;43.36;102280.41;6091415;28;20025;-70
2023/04/04 12:04:29;;;;;;;3.33;1.00;;;;;;;8.85;41.59;102269.44;6075574;28;20092;-69
2023/04/04 12:07:25;;;;;;;2.47;0.87;;;;;;;8.61;42.47;102265.69;6058143;28;20037;-71
2023/04/04 12:10:21;;;;;;;2.72;1.17;;;;;;;8.01;40.52;102257.88;6075947;28;20112;-68
2023/04/04 12:13:16;;;;;;;3.60;1.10;;;;;;;7.59;41.66;102255.09;6075747;28;20032;-70
2023/04/04 12:16:11;;;;;;;3.43;1.20;;;;;;;6.89;42.16;102259.09;6075913;28;20037;-69
2023/04/04 12:19:06;;;;;;;2.40;0.80;;;;;;;7.14;43.04;102256.81;6075430;28;20044;-69
2023/04/04 12:22:02;;;;;;;3.10;1.10;;;;;;;7.53;43.15;102258.09;6074950;28;20447;-69
2023/04/04 12:24:57;;;;;;;1.93;1.03;;;;;;;7.62;42.40;102252.28;6075393;28;20083;-69
2023/04/04 12:27:53;;;;;;;2.15;0.90;;;;;;;7.58;42.79;102237.59;6075976;28;20038;-70
2023/04/04 12:30:48;;;;;;;1.75;1.05;;;;;;;8.37;41.34;102242.44;6075586;28;20445;-69
2023/04/04 12:33:44;;;;;;;3.57;2.00;;;;;;;8.31;39.85;102242.84;6074796;28;20037;-70
2023/04/04 12:36:40;;;;;;;4.17;1.17;;;;;;;8.49;41.74;102240.84;6075591;28;20277;-70
2023/04/04 12:39:39;;;;;;;2.35;1.13;;;;;;;8.89;40.98;102233.88;6075249;28;20341;-69
2023/04/04 12:42:34;;;;;;;3.05;1.02;;;;;;;8.66;41.05;102218.66;6075455;28;20049;-70
2023/04/04 12:45:31;;;;;;;2.70;0.80;;;;;;;7.94;41.34;102243.31;6074874;28;20063;-70
2023/04/04 12:48:31;;;;;;;3.95;1.00;;;;;;;7.56;43.91;102236.78;6075059;28;20026;-70
2023/04/04 12:51:31;;;;;;;2.13;0.98;;;;;;;8.06;42.71;102210.03;6075369;28;20429;-70
2023/04/04 12:54:28;;;;;;;3.30;1.00;;;;;;;8.35;42.85;102209.97;6074816;28;20065;-70
2023/04/04 12:57:26;;;;;;;2.33;0.80;;;;;;;8.70;41.90;102222.78;6078348;28;20045;-69
2023/04/04 13:00:22;;;;;;;2.70;1.00;;;;;;;8.45;42.28;102210.28;6092260;28;20104;-70
2023/04/04 13:03:21;;;;;;;1.95;1.20;;;;;;;8.22;44.29;102218.72;6074605;28;20037;-70
2023/04/04 13:06:17;;;;;;;3.95;1.25;;;;;;;8.42;43.61;102197.25;6074751;28;20037;-70
2023/04/04 13:09:17;;;;;;;2.40;1.27;;;;;;;8.17;43.12;102189.09;6074589;28;20040;-70
2023/04/04 13:12:13;;;;;;;3.10;1.00;;;;;;;7.81;43.70;102189.53;6074578;28;20037;-70
2023/04/04 13:15:10;;;;;;;3.00;1.55;;;;;;;8.62;44.13;102177.47;6073887;28;20095;-69
2023/04/04 13:18:13;;;;;;;2.15;1.05;;;;;;;8.64;41.68;102172.94;6074845;28;20433;-70
2023/04/04 13:21:10;;;;;;;2.88;0.80;;;;;;;8.48;42.22;102175.69;6074508;28;20040;-70
2023/04/04 13:24:05;;;;;;;3.97;1.00;;;;;;;8.50;41.83;102167.69;6073868;28;20029;-70
2023/04/04 13:27:01;;;;;;;2.73;1.10;;;;;;;8.55;40.70;102162.94;6074386;28;20111;-70
2023/04/04 13:29:56;;;;;;;2.42;1.20;;;;;;;8.26;40.19;102168.22;6074117;28;20079;-70
2023/04/04 13:32:51;;;;;;;2.83;1.07;;;;;;;8.30;42.25;102151.28;6074117;28;20414;-70
2023/04/04 13:35:47;;;;;;;2.23;1.03;;;;;;;8.30;43.71;102143.34;6073462;28;20037;-70
2023/04/04 13:38:43;;;;;;;3.60;1.08;;;;;;;7.97;42.32;102142.75;6074225;28;20044;-69
2023/04/04 13:41:38;;;;;;;3.00;1.00;;;;;;;8.29;43.20;102132.84;6073778;28;20041;-70
2023/04/04 13:44:33;;;;;;;3.13;1.10;;;;;;;8.38;42.06;102119.94;6073134;28;20037;-69
2023/04/04 13:47:28;;;;;;;3.03;1.03;;;;;;;8.70;42.11;102143.44;6074067;28;20075;-70